AirNav   Pilot Hours Calculator
 
 829 users online  

FA35 Lindbergh's Landing Airport
Miami, Florida, USA

GOING TO MIAMI?


FAA INFORMATION EFFECTIVE 05 DECEMBER 2019

Location

FAA Identifier: FA35
Lat/Long: 25-37-10.3000N 080-29-19.2000W
25-37.171667N 080-29.320000W
25.6195278,-80.4886667
(estimated)
Elevation: 9 ft. / 3 m (estimated)
Variation: 04W (1995)
From city: 20 miles SW of MIAMI, FL
Time zone: UTC -5 (UTC -4 during Daylight Saving Time)
Zip code: 33187

Airport Operations

Airport use: Private use. Permission required prior to landing
Activation date: 01/1999
Control tower: no
ARTCC: MIAMI CENTER
FSS: MIAMI FLIGHT SERVICE STATION
Attendance: UNATNDD
Wind indicator: yes
Segmented circle: no

Airport Communications

WX ASOS at TMB (3 nm NE): PHONE 305-235-1332
WX AWOS-3 at X51 (8 nm SW): 118.375 ((305) 247-2791)
WX ASOS at MIA (15 nm NE): PHONE 305-870-0235

Nearby radio navigation aids

VOR radial/distance  VOR name  Freq  Var
DHPr219/13.2DOLPHIN VORTAC113.9004W
VKZr250/19.7VIRGINIA KEY VOR/DME117.1004W
FLLr219/32.3FORT LAUDERDALE VOR/DME114.4006W

Airport Services

Runway Information

Runway 9/27

Dimensions: 4000 x 70 ft. / 1219 x 21 m
Surface: turf
Runway edge markings: RY 09/27 HAS WHITE MARKERS AT 50 FT INTERVALS ALONG EDGES & AT THLDS.
RUNWAY 9  RUNWAY 27
Traffic pattern: rightleft
Obstructions: 6 ft. fence, 300 ft. from runway35 ft. pline, 900 ft. from runway

Airport Ownership and Management from official FAA records

Ownership: Privately-owned
Owner: GROVELAND AIRSTRIP ASSN -MIAMI MGMT
14275 SW 142 AVE
MIAMI, FL 33186
Phone 305-378-0130
Manager: RAMON L. TORRES
17705 SW 158 ST
MIAMI, FL 33187
Phone (305) 433-0105

Airport Operational Statistics

Aircraft based on the field: 16
Single engine airplanes: 12
Multi engine airplanes: 4
    

Additional Remarks

PILOT BRIEFING & PPR.
RADIO CTC WITH TMB ATCT (118.9) FOR TFC ADVISORIES & TMB ATIS (124.0) FOR RY IN USE & ALTIMETER SETTING.
FOR CD CTC MIAMI APCH AT 305-869-5432.

Instrument Procedures

There are no published instrument procedures at FA35.

Some nearby airports with instrument procedures:

KTMB - Miami Executive Airport (3 nm NE)
X51 - Miami Homestead General Aviation Airport (8 nm SW)
KHST - Homestead Air Reserve Base (10 nm SE)
KMIA - Miami International Airport (15 nm NE)
KOPF - Miami-Opa Locka Executive Airport (21 nm NE)
 
Loc | Ops | Rwys | IFR | FBO | Links
Com | Nav | Svcs | Stats | Notes

Reliance Aviation
AirBoss

 
Area around FA35 (Lindbergh's Landing Airport)
 
Road maps at: MapQuest Bing Google
 
Aerial photo
No photo
 
Sectional chart

 
Airport distance calculator
Flying to Lindbergh's Landing Airport? Find the distance to fly.

From to FA35

Sunrise and sunset
Times for 08-Dec-2019
 Local
(UTC-5)
 Zulu
(UTC)
Morning civil twilight06:3211:32
Sunrise06:5711:57
Sunset17:3122:31
Evening civil twilight17:5622:56

Current date and time
Zulu (UTC)  08-Dec-2019 16:40:28
Local (UTC-5)  08-Dec-2019 11:40:28
 
METAR
KTMB 
4nm NE 
081553Z 12010KT 10SM SCT034 BKN043 27/18 A3016 RMK AO2 SLP212 T02720183
KHST 
11nm SE 
081556Z AUTO 08009KT 10SM CLR 26/18 A3015 RMK AO2 SLPNO T02580179
KMIA 
14nm NE 
081553Z 10007KT 10SM BKN035 BKN045 BKN120 26/17 A3016 RMK AO2 SLP213 T02610167
TAF
KTMB 
4nm NE 
081500Z 0815/0912 07008KT P6SM SCT035 BKN080 FM081800 10010KT P6SM SCT030 BKN060 FM090300 VRB03KT P6SM FEW040 SCT100
KHST 
11nm SE 
081200Z 0812/0918 05006KT 9999 BKN030 QNH3007INS BECMG 0814/0815 08006KT 9999 BKN040 QNH3007INS BECMG 0901/0902 08006KT 9999 SCT030 QNH3005INS TX25/0820Z TN16/0812Z
KMIA 
14nm NE 
081500Z 0815/0918 08009KT P6SM SCT035 BKN080 FM081800 11010KT P6SM SCT030 BKN060 FM090300 VRB04KT P6SM FEW040 SCT100 FM091500 12010KT P6SM SCT035 SCT050
NOTAMs
Click for the latest NOTAMs
NOTAMs are issued by the DoD/FAA and will open in a separate window not controlled by AirNav.

 

 
 

Would you like to see your business listed on this page?

 If your business provides an interesting product or service to pilots, flight crews, aircraft, or users of the Lindbergh's Landing Airport, you should consider listing it here.  To start the listing process, click on the button below
 
Add a business
 

Other Pages about Lindbergh's Landing Airport

Update a link
 
Copyright © AirNav, LLC. All rights reserved. Privacy Policy  Contact